Time;durP1;ratioP1;P1;durP2;ratioP2;P2;SDS_P1;SDS_P2;PMS_P1;PMS_P2;Temp;Humidity;BMP_temperature;BMP_pressure;BME280_temperature;BME280_humidity;BME280_pressure;Samples;Min_cycle;Max_cycle;Signal;HPM_P1;HPM_P2
2022/09/07 00:00:51;;;;;;;8.20;7.40;;;;;;;14.69;100.00;96966.94;4984670;28;20225;-56
2022/09/07 00:03:19;;;;;;;10.33;9.53;;;;;;;14.67;100.00;96966.34;4983235;28;20205;-58
2022/09/07 00:05:49;;;;;;;9.30;8.60;;;;;;;14.66;100.00;96959.38;4946864;28;22043;-57
2022/09/07 00:08:19;;;;;;;9.80;8.83;;;;;;;14.62;100.00;96956.34;4938665;28;20272;-56
2022/09/07 00:10:58;;;;;;;8.60;7.87;;;;;;;14.59;100.00;96959.44;4968860;28;20233;-57
2022/09/07 00:13:28;;;;;;;7.80;7.20;;;;;;;14.56;100.00;96946.53;4989074;28;20330;-57
2022/09/07 00:15:57;;;;;;;9.13;8.33;;;;;;;14.54;100.00;96951.25;4957608;28;20306;-57
2022/09/07 00:18:25;;;;;;;8.53;7.83;;;;;;;14.54;100.00;96953.91;4985287;28;20291;-55
2022/09/07 00:21:00;;;;;;;9.47;8.70;;;;;;;14.56;100.00;96951.84;4972028;28;20259;-56
2022/09/07 00:23:30;;;;;;;8.93;8.23;;;;;;;14.49;100.00;96941.25;4947634;28;21522;-57
2022/09/07 00:26:07;;;;;;;9.00;8.17;;;;;;;14.53;100.00;96947.78;4970660;28;20204;-57
2022/09/07 00:28:36;;;;;;;9.67;8.77;;;;;;;14.56;100.00;96947.34;4986226;28;20256;-53
2022/09/07 00:31:04;;;;;;;9.57;8.67;;;;;;;14.58;100.00;96949.78;4971436;28;20291;-58
2022/09/07 00:33:32;;;;;;;8.83;8.13;;;;;;;14.57;100.00;96958.81;4986983;28;20227;-57
2022/09/07 00:36:01;;;;;;;9.40;8.50;;;;;;;14.57;100.00;96956.97;4990883;28;20566;-56
2022/09/07 00:38:29;;;;;;;11.57;9.40;;;;;;;14.54;100.00;96951.25;4947150;28;21927;-55
2022/09/07 00:40:57;;;;;;;9.90;8.90;;;;;;;14.53;100.00;96954.94;4973472;28;20665;-56
2022/09/07 00:43:35;;;;;;;10.33;9.43;;;;;;;14.45;100.00;96946.19;4986495;28;20202;-57
2022/09/07 00:46:05;;;;;;;9.60;8.73;;;;;;;14.44;100.00;96939.22;4962473;28;21198;-56
2022/09/07 00:48:35;;;;;;;8.80;8.10;;;;;;;14.41;100.00;96944.19;4990615;28;20201;-54
2022/09/07 00:51:06;;;;;;;9.07;8.37;;;;;;;14.34;100.00;96941.53;4984646;28;20280;-55
2022/09/07 00:53:36;;;;;;;9.17;8.47;;;;;;;14.31;100.00;96939.31;4945204;28;23064;-53
2022/09/07 00:56:06;;;;;;;9.13;8.23;;;;;;;14.27;100.00;96940.78;4973109;28;20208;-54
2022/09/07 00:58:37;;;;;;;8.40;7.70;;;;;;;14.25;100.00;96943.63;4983291;28;20206;-51
2022/09/07 01:01:05;;;;;;;9.80;8.87;;;;;;;14.06;100.00;96918.72;4989573;28;20711;-55
2022/09/07 01:03:36;;;;;;;9.13;8.37;;;;;;;14.15;100.00;96941.44;4978277;28;20201;-53
2022/09/07 01:06:08;;;;;;;9.77;8.97;;;;;;;14.23;100.00;96948.38;4984259;28;20200;-56
2022/09/07 01:08:37;;;;;;;10.30;8.57;;;;;;;14.19;100.00;96942.63;4986589;28;21053;-49
2022/09/07 01:11:05;;;;;;;9.23;8.60;;;;;;;14.22;100.00;96940.59;4945474;28;20248;-56
2022/09/07 01:13:34;;;;;;;9.37;8.57;;;;;;;14.18;100.00;96941.00;4977567;28;20316;-51
2022/09/07 01:16:08;;;;;;;9.50;8.80;;;;;;;14.08;100.00;96935.31;4987891;28;20920;-56
2022/09/07 01:18:40;;;;;;;9.73;8.93;;;;;;;14.11;100.00;96928.75;4974746;28;20201;-53
2022/09/07 01:21:23;;;;;;;8.83;8.13;;;;;;;14.16;100.00;96937.72;4981777;28;20229;-57
2022/09/07 01:24:13;;;;;;;10.13;9.23;;;;;;;14.23;100.00;96952.88;4989686;28;20216;-57
2022/09/07 01:27:14;;;;;;;9.43;8.73;;;;;;;14.15;100.00;96946.75;4929362;28;20336;-53
2022/09/07 01:29:52;;;;;;;9.30;8.50;;;;;;;14.11;100.00;96956.19;4985758;28;20204;-55
2022/09/07 01:32:26;;;;;;;10.30;9.37;;;;;;;14.17;100.00;96950.03;4967305;28;20257;-52
2022/09/07 01:34:54;;;;;;;9.43;8.67;;;;;;;14.14;100.00;96955.78;4984510;28;20290;-52
2022/09/07 01:37:28;;;;;;;9.80;9.00;;;;;;;14.17;100.00;96950.03;4985499;28;20260;-59
2022/09/07 01:40:04;;;;;;;9.83;9.00;;;;;;;14.10;100.00;96935.13;4990369;28;20259;-55
2022/09/07 01:42:36;;;;;;;10.47;9.37;;;;;;;14.09;100.00;96957.47;4944541;28;20999;-56
2022/09/07 01:45:11;;;;;;;9.37;8.70;;;;;;;14.02;100.00;96952.16;4989640;28;20376;-59
2022/09/07 01:48:15;;;;;;;10.23;9.33;;;;;;;14.03;100.00;96956.44;4973207;28;20302;-61
2022/09/07 01:50:47;;;;;;;9.47;8.63;;;;;;;13.97;100.00;96958.09;4985108;28;20224;-53
2022/09/07 01:53:19;;;;;;;9.73;8.93;;;;;;;14.01;100.00;96958.50;4983825;28;20854;-55
2022/09/07 01:55:50;;;;;;;9.37;8.57;;;;;;;14.00;100.00;96963.00;4983992;28;20661;-61
2022/09/07 01:58:23;;;;;;;9.70;8.77;;;;;;;13.99;100.00;96955.25;4945815;28;20765;-53
2022/09/07 02:00:55;;;;;;;9.87;9.17;;;;;;;13.98;100.00;96953.59;4989801;28;20225;-63
2022/09/07 02:03:28;;;;;;;10.47;9.53;;;;;;;13.95;100.00;96951.38;4984845;28;20204;-54
2022/09/07 02:06:00;;;;;;;12.40;10.10;;;;;;;13.95;100.00;96956.69;4966345;28;20272;-58
2022/09/07 02:08:32;;;;;;;8.83;8.23;;;;;;;13.94;100.00;96947.88;4981659;28;20304;-54
2022/09/07 02:11:04;;;;;;;10.47;9.40;;;;;;;13.91;100.00;96947.50;4951621;28;20257;-59
2022/09/07 02:13:34;;;;;;;11.00;9.53;;;;;;;13.85;100.00;96949.16;4964793;28;20666;-55
2022/09/07 02:16:06;;;;;;;10.80;10.10;;;;;;;13.82;100.00;96952.22;4942735;28;20350;-55
2022/09/07 02:18:38;;;;;;;11.27;10.23;;;;;;;13.84;100.00;96947.50;4982987;28;20229;-55
2022/09/07 02:21:09;;;;;;;12.00;10.73;;;;;;;13.84;100.00;96940.34;4989142;28;20249;-58
2022/09/07 02:23:41;;;;;;;10.93;10.13;;;;;;;13.79;100.00;96937.47;4985664;28;20240;-57
2022/09/07 02:26:13;;;;;;;10.03;9.33;;;;;;;13.72;100.00;96929.53;4990461;28;20272;-58
2022/09/07 02:28:41;;;;;;;11.17;10.33;;;;;;;13.64;100.00;96926.28;4989636;28;20297;-57
2022/09/07 02:31:11;;;;;;;10.63;9.83;;;;;;;13.60;100.00;96936.53;4945444;28;20225;-58
2022/09/07 02:33:39;;;;;;;10.70;10.00;;;;;;;13.57;100.00;96928.94;4979033;28;20204;-57
2022/09/07 02:36:08;;;;;;;11.27;10.43;;;;;;;13.57;100.00;96944.94;4989295;28;20703;-58
2022/09/07 02:38:36;;;;;;;10.73;9.87;;;;;;;13.60;100.00;96937.34;4988547;28;20189;-57
2022/09/07 02:41:05;;;;;;;11.00;10.20;;;;;;;13.62;100.00;96934.47;4988968;28;20307;-57
2022/09/07 02:43:33;;;;;;;10.23;9.53;;;;;;;13.61;100.00;96948.81;4989514;28;20295;-56
2022/09/07 02:46:19;;;;;;;11.60;10.80;;;;;;;13.69;100.00;96951.25;4987863;28;20727;-57
2022/09/07 02:48:57;;;;;;;12.53;11.40;;;;;;;13.70;100.00;96950.22;4984974;28;20224;-52
2022/09/07 02:51:31;;;;;;;12.97;11.93;;;;;;;13.76;100.00;96953.88;4985909;28;20455;-51
2022/09/07 02:54:19;;;;;;;13.83;12.83;;;;;;;13.68;100.00;96946.13;4982799;28;20227;-57
2022/09/07 02:56:54;;;;;;;13.00;12.10;;;;;;;13.74;100.00;96958.59;4986363;28;20721;-51
2022/09/07 02:59:34;;;;;;;13.83;12.83;;;;;;;13.70;100.00;96955.56;4982819;28;20200;-56
2022/09/07 03:02:07;;;;;;;14.03;12.93;;;;;;;13.74;100.00;96955.94;4951364;28;20236;-58
2022/09/07 03:04:41;;;;;;;13.80;12.57;;;;;;;13.78;100.00;96957.16;4981378;28;20908;-54
2022/09/07 03:07:13;;;;;;;13.60;12.27;;;;;;;13.75;100.00;96957.56;4983510;28;20300;-61
2022/09/07 03:09:44;;;;;;;12.77;11.77;;;;;;;13.77;100.00;96968.03;4988496;28;20299;-57
2022/09/07 03:12:13;;;;;;;12.93;11.90;;;;;;;13.73;100.00;96967.63;4982962;28;20257;-59
2022/09/07 03:14:42;;;;;;;13.67;12.67;;;;;;;13.70;100.00;96963.53;4986260;28;20618;-59
2022/09/07 03:17:12;;;;;;;12.57;11.67;;;;;;;13.63;100.00;96965.38;4969310;28;20272;-59
2022/09/07 03:19:40;;;;;;;11.27;10.37;;;;;;;13.59;100.00;96962.34;4972536;28;20205;-58
2022/09/07 03:22:08;;;;;;;12.33;11.30;;;;;;;13.57;100.00;96960.91;4956939;28;20245;-57
2022/09/07 03:24:36;;;;;;;12.10;11.13;;;;;;;13.51;100.00;96953.75;4989099;28;20263;-56
2022/09/07 03:27:04;;;;;;;11.60;10.70;;;;;;;13.50;100.00;96960.09;4981504;28;20212;-56
2022/09/07 03:29:32;;;;;;;11.37;10.47;;;;;;;13.54;100.00;96961.31;4959625;28;20428;-60
2022/09/07 03:32:00;;;;;;;12.90;11.67;;;;;;;13.59;100.00;96967.66;4980948;28;20219;-60
2022/09/07 03:34:30;;;;;;;11.87;10.97;;;;;;;13.60;100.00;96966.63;4938422;28;20878;-60
2022/09/07 03:36:58;;;;;;;12.90;11.67;;;;;;;13.60;100.00;96974.63;4962829;28;20289;-60
2022/09/07 03:39:26;;;;;;;12.63;11.57;;;;;;;13.64;100.00;96977.69;4995286;28;20323;-57
2022/09/07 03:41:54;;;;;;;11.70;10.63;;;;;;;13.62;100.00;96973.59;4983496;28;20227;-57
2022/09/07 03:44:22;;;;;;;12.80;11.70;;;;;;;13.63;100.00;96970.72;4991160;28;20827;-59
2022/09/07 03:46:50;;;;;;;11.93;10.80;;;;;;;13.60;100.00;96971.97;4982997;28;20214;-60
2022/09/07 03:49:19;;;;;;;13.20;11.93;;;;;;;13.63;100.00;96976.03;4950394;28;20216;-57
2022/09/07 03:51:48;;;;;;;13.33;12.30;;;;;;;13.68;100.00;96976.25;4965246;28;20233;-58
2022/09/07 03:54:16;;;;;;;13.53;12.43;;;;;;;13.65;100.00;96973.19;4997704;28;20201;-60
2022/09/07 03:56:44;;;;;;;13.80;12.60;;;;;;;13.65;100.00;96976.66;4994200;28;20291;-60
2022/09/07 03:59:12;;;;;;;12.67;11.67;;;;;;;13.66;100.00;96977.47;4985645;28;20523;-60
2022/09/07 04:01:40;;;;;;;12.73;11.77;;;;;;;13.73;100.00;96975.59;4989029;28;20251;-58
2022/09/07 04:04:09;;;;;;;12.60;11.70;;;;;;;13.73;100.00;96972.94;4945296;28;22599;-57
2022/09/07 04:06:37;;;;;;;13.57;12.47;;;;;;;13.74;100.00;96958.59;4963084;28;21232;-58
2022/09/07 04:09:08;;;;;;;11.77;10.67;;;;;;;13.81;100.00;96967.38;4988363;28;20202;-58
2022/09/07 04:11:36;;;;;;;11.60;10.77;;;;;;;13.84;100.00;96964.31;4994087;28;21016;-59
2022/09/07 04:14:04;;;;;;;11.60;10.70;;;;;;;13.89;100.00;96967.16;4989494;28;20315;-58
2022/09/07 04:16:33;;;;;;;13.18;12.18;;;;;;;13.98;100.00;96956.28;4995386;28;20544;-56
2022/09/07 04:19:01;;;;;;;11.73;10.73;;;;;;;14.02;100.00;96958.31;4992733;28;20202;-56
2022/09/07 04:21:30;;;;;;;11.00;9.93;;;;;;;14.03;100.00;96964.44;4950137;28;20267;-53
2022/09/07 04:23:58;;;;;;;12.30;11.30;;;;;;;14.06;100.00;96971.22;4907907;28;20596;-59
2022/09/07 04:26:30;;;;;;;12.13;11.07;;;;;;;14.08;100.00;96958.50;4967688;28;20255;-56
2022/09/07 04:28:59;;;;;;;11.60;10.70;;;;;;;14.03;100.00;96956.44;4990672;28;20206;-61
2022/09/07 04:31:28;;;;;;;11.73;10.83;;;;;;;14.06;100.00;96955.22;4967637;28;20228;-58
2022/09/07 04:33:56;;;;;;;11.70;10.57;;;;;;;14.02;100.00;96955.66;4969821;28;20209;-60
2022/09/07 04:36:24;;;;;;;11.87;10.87;;;;;;;14.00;100.00;96954.22;4994436;28;20193;-56
2022/09/07 04:38:56;;;;;;;12.73;11.73;;;;;;;13.99;100.00;96957.91;4948159;28;21021;-54
2022/09/07 04:41:24;;;;;;;13.13;11.93;;;;;;;14.01;100.00;96958.50;4989644;28;20965;-60
2022/09/07 04:43:54;;;;;;;13.27;12.03;;;;;;;13.92;100.00;96939.28;4994837;28;20608;-59
2022/09/07 04:46:24;;;;;;;12.73;11.53;;;;;;;13.92;100.00;96939.28;4968812;28;20312;-61
2022/09/07 04:48:54;;;;;;;12.37;11.37;;;;;;;13.88;100.00;96944.22;4965161;28;20391;-59
2022/09/07 04:51:24;;;;;;;13.27;11.83;;;;;;;13.91;100.00;96944.84;4980515;28;20244;-58
2022/09/07 04:53:56;;;;;;;12.93;11.83;;;;;;;13.92;100.00;96938.47;4943226;28;20221;-57
2022/09/07 04:56:24;;;;;;;13.17;11.83;;;;;;;13.91;100.00;96934.19;4965570;28;20201;-60
2022/09/07 04:58:54;;;;;;;12.50;11.43;;;;;;;13.92;100.00;96930.50;4991128;28;20680;-55
2022/09/07 05:01:24;;;;;;;13.33;12.17;;;;;;;13.94;100.00;96931.91;4956654;28;20232;-57
2022/09/07 05:03:52;;;;;;;12.80;11.90;;;;;;;13.86;100.00;96930.31;4933226;28;20221;-52
2022/09/07 05:06:21;;;;;;;13.40;12.27;;;;;;;13.81;100.00;96943.41;4962509;28;20228;-56
2022/09/07 05:08:51;;;;;;;13.80;12.47;;;;;;;13.82;100.00;96949.56;4946485;28;20264;-56
2022/09/07 05:11:20;;;;;;;14.07;12.87;;;;;;;13.84;100.00;96960.81;4994980;28;20695;-60
2022/09/07 05:13:57;;;;;;;15.67;14.37;;;;;;;13.85;100.00;96968.63;4990855;28;20952;-60
2022/09/07 05:16:26;;;;;;;14.37;13.37;;;;;;;13.95;100.00;96975.34;4986178;28;20255;-61
2022/09/07 05:18:56;;;;;;;14.60;13.40;;;;;;;13.98;100.00;96973.06;4958224;28;20892;-60
2022/09/07 05:21:25;;;;;;;14.17;13.10;;;;;;;14.05;100.00;96975.69;4966433;28;20752;-60
2022/09/07 05:23:56;;;;;;;15.17;13.87;;;;;;;14.08;100.00;96974.47;4941135;28;22408;-55
2022/09/07 05:26:25;;;;;;;14.77;13.67;;;;;;;14.23;100.00;96987.53;4994396;28;20904;-59
2022/09/07 05:28:54;;;;;;;14.00;12.80;;;;;;;14.44;100.00;96989.06;4982886;28;20201;-57
2022/09/07 05:31:44;;;;;;;13.87;12.77;;;;;;;14.75;100.00;96980.28;4985326;28;20606;-57
2022/09/07 05:34:12;;;;;;;13.27;12.27;;;;;;;14.95;100.00;96975.84;4966237;28;20304;-59
2022/09/07 05:36:57;;;;;;;12.97;12.07;;;;;;;15.03;100.00;96973.72;4937487;28;20842;-55
2022/09/07 05:39:25;;;;;;;13.90;12.67;;;;;;;15.15;100.00;96973.00;4948248;28;20303;-60
2022/09/07 05:41:54;;;;;;;12.80;11.80;;;;;;;15.30;100.00;96984.16;4983179;28;20247;-57
2022/09/07 05:44:22;;;;;;;13.23;12.20;;;;;;;15.37;100.00;96973.41;4986507;28;20664;-60
2022/09/07 05:47:12;;;;;;;13.00;12.00;;;;;;;15.31;100.00;96971.63;4984400;28;20237;-58
2022/09/07 05:49:40;;;;;;;12.90;11.87;;;;;;;15.26;100.00;96966.94;4957156;28;20216;-59
2022/09/07 05:52:08;;;;;;;12.33;11.43;;;;;;;15.16;100.00;96971.97;4943024;28;21068;-59
2022/09/07 05:54:37;;;;;;;11.07;10.27;;;;;;;15.08;100.00;96969.56;4956089;28;20205;-61
2022/09/07 05:57:05;;;;;;;11.90;10.93;;;;;;;15.00;100.00;96971.50;4973297;28;20295;-59
2022/09/07 05:59:34;;;;;;;12.77;11.77;;;;;;;14.94;100.00;96985.66;4987450;28;20231;-59
2022/09/07 06:02:02;;;;;;;11.40;10.47;;;;;;;15.00;100.00;96976.00;4985410;28;21024;-56
2022/09/07 06:04:32;;;;;;;12.90;11.50;;;;;;;15.13;100.00;96977.75;4968271;28;20217;-60
2022/09/07 06:07:00;;;;;;;13.60;12.40;;;;;;;15.46;100.00;96987.31;4961636;28;20312;-59
2022/09/07 06:09:48;;;;;;;12.60;11.70;;;;;;;15.96;100.00;96989.09;4982577;28;20205;-59
2022/09/07 06:12:36;;;;;;;12.33;11.33;;;;;;;16.48;100.00;96994.00;4940281;28;20232;-58
2022/09/07 06:15:06;;;;;;;13.23;11.70;;;;;;;16.88;100.00;96975.72;4986878;28;20209;-59
2022/09/07 06:17:34;;;;;;;11.63;10.43;;;;;;;17.07;100.00;96982.66;4985618;28;20244;-60
2022/09/07 06:20:05;;;;;;;11.97;10.90;;;;;;;17.12;100.00;96976.59;4964258;28;20314;-61
2022/09/07 06:22:35;;;;;;;12.33;11.13;;;;;;;17.23;100.00;96977.63;4978870;28;20355;-60
2022/09/07 06:25:04;;;;;;;12.13;11.03;;;;;;;17.30;100.00;96981.03;4975259;28;20224;-60
2022/09/07 06:27:32;;;;;;;11.57;10.57;;;;;;;17.33;100.00;96971.72;4950910;28;20330;-58
2022/09/07 06:30:00;;;;;;;12.10;10.90;;;;;;;17.40;100.00;96977.75;4934366;28;20264;-60
2022/09/07 06:32:29;;;;;;;11.30;10.50;;;;;;;17.35;100.00;96977.66;4978746;28;20320;-56
2022/09/07 06:35:14;;;;;;;10.83;9.73;;;;;;;17.75;100.00;96968.88;4978575;28;20954;-59
2022/09/07 06:37:43;;;;;;;11.10;10.13;;;;;;;17.48;100.00;96969.41;4965302;28;20205;-58
2022/09/07 06:40:11;;;;;;;12.83;11.63;;;;;;;17.48;100.00;96977.44;4965942;28;20245;-59
2022/09/07 06:42:40;;;;;;;11.57;10.77;;;;;;;17.55;100.00;96974.63;4983258;28;20233;-64
2022/09/07 06:45:09;;;;;;;11.10;9.93;;;;;;;17.62;100.00;96980.69;4940668;28;20308;-55
2022/09/07 06:47:39;;;;;;;12.30;11.40;;;;;;;17.94;100.00;96991.00;4988052;28;20225;-58
2022/09/07 06:50:08;;;;;;;11.63;10.83;;;;;;;18.20;100.00;96991.56;4984331;28;20219;-57
2022/09/07 06:52:38;;;;;;;12.40;11.13;;;;;;;18.33;100.00;96984.28;4967164;28;20233;-58
2022/09/07 06:55:27;;;;;;;13.10;12.03;;;;;;;18.05;100.00;96988.56;4982829;28;20209;-54
2022/09/07 06:57:55;;;;;;;13.03;11.93;;;;;;;18.15;100.00;96988.78;4965270;28;20200;-58
2022/09/07 07:00:24;;;;;;;11.83;10.83;;;;;;;18.65;100.00;96997.22;4930003;28;20333;-54
2022/09/07 07:02:52;;;;;;;21.57;19.10;;;;;;;19.13;100.00;96996.97;4985064;28;20212;-59
2022/09/07 07:05:20;;;;;;;22.03;19.60;;;;;;;19.35;100.00;96986.34;4982267;28;20210;-60
2022/09/07 07:07:50;;;;;;;13.17;11.83;;;;;;;19.33;100.00;96997.31;4962282;28;20771;-54
2022/09/07 07:10:18;;;;;;;12.97;11.73;;;;;;;19.41;100.00;96998.78;4979073;28;20864;-61
2022/09/07 07:12:55;;;;;;;14.10;12.70;;;;;;;19.78;100.00;97002.78;4958565;28;20201;-57
2022/09/07 07:15:26;;;;;;;13.97;12.83;;;;;;;19.49;100.00;96994.84;4980577;28;20580;-55
2022/09/07 07:17:54;;;;;;;13.50;12.50;;;;;;;19.22;100.00;96992.84;4936217;28;20854;-59
2022/09/07 07:20:32;;;;;;;14.93;13.63;;;;;;;19.61;100.00;96986.69;4981527;28;20790;-60
2022/09/07 07:23:01;;;;;;;13.23;12.10;;;;;;;19.61;100.00;96989.38;4968729;28;20213;-60
2022/09/07 07:25:30;;;;;;;14.20;12.80;;;;;;;19.50;100.00;96988.41;4987887;28;20239;-58
2022/09/07 07:27:58;;;;;;;15.20;13.90;;;;;;;19.13;100.00;96991.59;4971747;28;20767;-62
2022/09/07 07:30:46;;;;;;;14.57;13.37;;;;;;;19.52;100.00;96987.13;4982058;28;20229;-59
2022/09/07 07:33:14;;;;;;;14.77;13.47;;;;;;;19.74;100.00;96993.59;4941917;28;21003;-56
2022/09/07 07:35:43;;;;;;;15.13;13.83;;;;;;;19.87;100.00;96995.09;4982501;28;20240;-56
2022/09/07 07:38:12;;;;;;;14.27;13.20;;;;;;;19.84;100.00;96982.97;4963288;28;20201;-57
2022/09/07 07:41:00;;;;;;;14.30;13.23;;;;;;;20.01;100.00;96990.22;4981499;28;20225;-59
2022/09/07 07:43:55;;;;;;;21.00;18.87;;;;;;;20.69;100.00;96992.59;4981744;28;22505;-59
2022/09/07 07:46:24;;;;;;;18.47;16.87;;;;;;;20.74;100.00;97003.41;4974347;28;20201;-56
2022/09/07 07:48:53;;;;;;;12.20;11.30;;;;;;;20.29;100.00;97007.22;4937881;28;20231;-57
2022/09/07 07:51:21;;;;;;;11.47;10.57;;;;;;;20.25;100.00;96998.84;4987989;28;20220;-54
2022/09/07 07:53:51;;;;;;;13.27;12.10;;;;;;;20.05;100.00;97004.78;4987620;28;20690;-59
2022/09/07 07:56:19;;;;;;;15.07;13.80;;;;;;;19.95;100.00;97017.03;4975826;28;20232;-61
2022/09/07 07:58:51;;;;;;;13.53;12.33;;;;;;;20.04;100.00;97006.63;4987714;28;20205;-57
2022/09/07 08:01:20;;;;;;;12.35;11.35;;;;;;;20.36;100.00;96997.88;4968486;28;21267;-61
2022/09/07 08:03:48;;;;;;;11.13;10.30;;;;;;;20.45;100.00;96997.44;4946303;28;20201;-57
2022/09/07 08:06:18;;;;;;;11.80;10.67;;;;;;;20.45;100.00;96994.75;4985261;28;20287;-60
2022/09/07 08:08:46;;;;;;;10.67;9.57;;;;;;;20.72;100.00;96989.38;4991497;28;20592;-61
2022/09/07 08:11:18;;;;;;;10.50;9.40;;;;;;;21.16;100.00;96985.75;4967146;28;20934;-57
2022/09/07 08:13:48;;;;;;;10.33;9.40;;;;;;;21.18;100.00;96997.06;4990451;28;20201;-60
2022/09/07 08:16:17;;;;;;;10.13;9.00;;;;;;;21.31;100.00;96992.34;4963763;28;20944;-59
2022/09/07 08:18:45;;;;;;;10.00;9.10;;;;;;;21.48;100.00;96998.38;4947492;28;20236;-58
2022/09/07 08:21:15;;;;;;;9.77;8.70;;;;;;;21.44;100.00;96994.56;4985180;28;20917;-60
2022/09/07 08:23:44;;;;;;;9.87;8.97;;;;;;;21.45;100.00;96984.63;4991482;28;20352;-60
2022/09/07 08:26:12;;;;;;;10.40;9.47;;;;;;;21.51;100.00;96992.47;4964520;28;20197;-57
2022/09/07 08:28:45;;;;;;;10.20;9.37;;;;;;;21.60;100.00;96984.72;4990805;28;20315;-58
2022/09/07 08:31:14;;;;;;;10.67;9.73;;;;;;;21.74;100.00;96981.56;4961706;28;21366;-62
2022/09/07 08:33:43;;;;;;;10.37;9.47;;;;;;;21.66;100.00;96964.03;4985642;28;20201;-59
2022/09/07 08:36:13;;;;;;;11.43;10.53;;;;;;;21.88;100.00;96987.31;4924784;28;20237;-61
2022/09/07 08:38:41;;;;;;;15.70;14.13;;;;;;;22.19;100.00;96977.50;4953438;28;20205;-57
2022/09/07 08:41:33;;;;;;;10.30;9.50;;;;;;;22.44;100.00;96988.63;4985851;28;20308;-58
2022/09/07 08:44:06;;;;;;;10.97;9.03;;;;;;;22.50;100.00;96982.97;4968246;28;20708;-62
2022/09/07 08:46:36;;;;;;;9.77;8.83;;;;;;;22.47;100.00;96983.53;4979464;28;20263;-61
2022/09/07 08:49:06;;;;;;;11.03;8.30;;;;;;;22.40;100.00;96985.63;4986094;28;20280;-61
2022/09/07 08:51:40;;;;;;;9.70;8.83;;;;;;;22.35;100.00;96985.63;4962924;28;20235;-59
2022/09/07 08:54:11;;;;;;;10.20;8.57;;;;;;;22.24;100.00;96974.81;4945068;28;20201;-60
2022/09/07 08:56:43;;;;;;;9.20;8.30;;;;;;;22.45;100.00;96985.66;4992203;28;20196;-60
2022/09/07 08:59:38;;;;;;;9.80;8.50;;;;;;;22.73;100.00;96971.94;4966334;28;20208;-59
2022/09/07 09:02:13;;;;;;;9.53;8.47;;;;;;;22.74;100.00;96976.31;4986194;28;20228;-60
2022/09/07 09:05:01;;;;;;;15.17;13.30;;;;;;;22.72;100.00;96973.84;4991161;28;20205;-58
2022/09/07 09:07:54;;;;;;;9.57;8.47;;;;;;;22.73;100.00;96975.47;4986697;28;20225;-58
2022/09/07 09:10:28;;;;;;;10.20;7.83;;;;;;;22.79;100.00;96982.50;4944553;28;20200;-54
2022/09/07 09:13:05;;;;;;;8.53;7.77;;;;;;;22.68;100.00;96980.88;4990424;28;20200;-57
2022/09/07 09:15:50;;;;;;;8.60;7.23;;;;;;;22.45;100.00;96979.44;4970501;28;20200;-57
2022/09/07 09:18:33;;;;;;;9.03;8.23;;;;;;;22.25;100.00;96975.59;4986944;28;20808;-57
2022/09/07 09:21:01;;;;;;;10.73;8.00;;;;;;;21.95;100.00;96972.53;4990462;28;20399;-58
2022/09/07 09:23:34;;;;;;;8.53;7.60;;;;;;;22.49;100.00;96970.56;4975464;28;20256;-60
2022/09/07 09:26:05;;;;;;;7.37;6.73;;;;;;;22.46;100.00;96973.81;4942827;28;20205;-58
2022/09/07 09:28:34;;;;;;;10.67;7.77;;;;;;;22.20;100.00;96964.78;4988199;28;20217;-56
2022/09/07 09:31:03;;;;;;;12.37;7.00;;;;;;;22.43;100.00;96973.50;4973280;28;20232;-59
2022/09/07 09:33:32;;;;;;;8.23;7.43;;;;;;;22.54;100.00;96967.91;4984053;28;20208;-54
2022/09/07 09:36:01;;;;;;;7.83;7.03;;;;;;;22.53;100.00;96978.94;4993991;28;20208;-56
2022/09/07 09:38:32;;;;;;;7.23;6.57;;;;;;;22.70;100.00;96976.00;4971354;28;20910;-59
2022/09/07 09:41:04;;;;;;;9.90;6.67;;;;;;;22.77;100.00;96964.97;4944354;28;20228;-59
2022/09/07 09:43:41;;;;;;;9.10;6.97;;;;;;;22.74;100.00;96976.31;4980905;28;20271;-55
2022/09/07 09:46:23;;;;;;;9.80;6.87;;;;;;;22.48;100.00;96973.53;4965958;28;20755;-60
2022/09/07 09:48:54;;;;;;;8.80;7.33;;;;;;;22.88;100.00;96976.56;4984615;28;20478;-59
2022/09/07 09:51:23;;;;;;;7.50;6.80;;;;;;;22.77;100.00;96976.56;4967392;28;20221;-59
2022/09/07 09:54:21;;;;;;;7.23;6.53;;;;;;;22.34;100.00;96968.59;4986431;28;20268;-61
2022/09/07 09:56:49;;;;;;;8.63;7.83;;;;;;;22.52;100.00;96971.94;4944360;28;20205;-61
2022/09/07 09:59:23;;;;;;;9.37;6.80;;;;;;;22.67;100.00;96958.44;4982523;28;20293;-57
2022/09/07 10:02:28;;;;;;;7.37;6.67;;;;;;;23.12;100.00;96966.06;4969619;28;20970;-56
2022/09/07 10:05:24;;;;;;;8.10;7.40;;;;;;;23.01;100.00;96962.53;4987282;28;20216;-59
2022/09/07 10:07:52;;;;;;;10.27;7.50;;;;;;;23.03;100.00;96963.09;4970072;28;20204;-57
2022/09/07 10:10:21;;;;;;;9.23;6.60;;;;;;;23.26;100.00;96955.50;4984609;28;20295;-55
2022/09/07 10:12:52;;;;;;;8.57;6.87;;;;;;;23.38;100.00;96961.47;4945148;28;20233;-57
2022/09/07 10:15:34;;;;;;;6.20;5.67;;;;;;;23.43;100.00;96971.44;4982649;28;20232;-56
2022/09/07 10:18:18;;;;;;;7.33;5.97;;;;;;;23.48;100.00;96951.72;4966937;28;20245;-58
2022/09/07 10:20:46;;;;;;;11.10;6.73;;;;;;;23.36;100.00;96966.34;4986187;28;20237;-57
2022/09/07 10:23:21;;;;;;;7.43;6.50;;;;;;;23.56;100.00;96954.69;4974823;28;20197;-59
2022/09/07 10:25:49;;;;;;;13.30;11.17;;;;;;;23.76;100.00;96955.69;4984263;28;20216;-58
2022/09/07 10:28:19;;;;;;;7.80;5.97;;;;;;;23.89;100.00;96946.19;4944089;28;20664;-58
2022/09/07 10:31:06;;;;;;;6.87;5.63;;;;;;;23.90;100.00;96931.56;4959047;28;20244;-49
2022/09/07 10:33:48;;;;;;;10.30;6.53;;;;;;;23.73;100.00;96917.59;4957731;28;20304;-54
2022/09/07 10:36:41;;;;;;;6.57;6.07;;;;;;;23.80;100.00;96918.09;4981336;28;20204;-55
2022/09/07 10:39:14;;;;;;;8.70;6.33;;;;;;;23.66;100.00;96912.47;4966836;28;20313;-58
2022/09/07 10:41:54;;;;;;;6.73;5.43;;;;;;;23.76;100.00;96912.41;4985734;28;20226;-55
2022/09/07 10:44:31;;;;;;;7.63;4.87;;;;;;;23.96;100.00;96918.84;4936247;28;20209;-57
2022/09/07 10:47:01;;;;;;;6.50;4.57;;;;;;;23.92;100.00;96923.19;4984797;28;20197;-55
2022/09/07 10:49:36;;;;;;;5.57;4.73;;;;;;;23.77;100.00;96924.06;4985432;28;21795;-58
2022/09/07 10:52:11;;;;;;;4.53;4.23;;;;;;;23.99;100.00;96921.78;4980549;28;20235;-57
2022/09/07 10:54:47;;;;;;;4.67;4.03;;;;;;;24.23;100.00;96929.28;4982462;28;20197;-58
2022/09/07 10:57:40;;;;;;;8.47;4.37;;;;;;;24.35;100.00;96918.13;4959747;28;20208;-60
2022/09/07 11:00:16;;;;;;;4.20;3.77;;;;;;;24.32;100.00;96926.00;4938275;28;20221;-55
2022/09/07 11:02:58;;;;;;;4.80;4.30;;;;;;;24.55;100.00;96919.88;4964842;28;21035;-58
2022/09/07 11:06:04;;;;;;;4.57;3.63;;;;;;;24.61;100.00;96922.56;4981200;28;20211;-59
2022/09/07 11:08:40;;;;;;;4.67;4.10;;;;;;;24.53;100.00;96913.94;4981328;28;20208;-58
2022/09/07 11:11:31;;;;;;;5.30;3.93;;;;;;;24.73;100.00;96912.16;4962221;28;20240;-57
2022/09/07 11:14:22;;;;;;;5.33;4.27;;;;;;;25.09;100.00;96913.81;4978526;28;20211;-57
2022/09/07 11:16:53;;;;;;;4.80;4.30;;;;;;;25.12;100.00;96911.31;4933215;28;21125;-57
2022/09/07 11:19:25;;;;;;;5.93;4.57;;;;;;;25.43;100.00;96904.81;4985497;28;20259;-56
2022/09/07 11:22:14;;;;;;;7.13;4.63;;;;;;;25.72;100.00;96906.66;4984451;28;20634;-56
2022/09/07 11:24:46;;;;;;;4.47;4.10;;;;;;;25.97;99.96;96896.59;4988024;28;20200;-57
2022/09/07 11:27:39;;;;;;;4.03;3.70;;;;;;;26.20;96.25;96897.69;4963518;28;20696;-57
2022/09/07 11:30:18;;;;;;;4.03;3.73;;;;;;;26.68;90.96;96887.72;4980744;28;20712;-52
2022/09/07 11:32:54;;;;;;;5.77;4.10;;;;;;;26.96;88.00;96888.69;4952230;28;20225;-57
2022/09/07 11:35:31;;;;;;;5.10;4.03;;;;;;;26.78;82.06;96876.72;4983937;28;20617;-58
2022/09/07 11:38:06;;;;;;;6.80;3.77;;;;;;;26.38;89.02;96885.19;4990916;28;20238;-51
2022/09/07 11:40:36;;;;;;;4.53;3.90;;;;;;;26.30;92.44;96880.44;4979320;28;20197;-57
2022/09/07 11:43:13;;;;;;;4.57;4.17;;;;;;;26.89;84.82;96876.56;4973789;28;20243;-57